sensor_id;sensor_type;location;lat;lon;timestamp;P1;durP1;ratioP1;P2;durP2;ratioP2
9370;SDS011;4725;48.384;8.984;2022-12-13T00:01:49;19.80;;;11.63;;
9370;SDS011;4725;48.384;8.984;2022-12-13T00:04:17;23.20;;;13.37;;
9370;SDS011;4725;48.384;8.984;2022-12-13T00:06:46;23.63;;;13.27;;
9370;SDS011;4725;48.384;8.984;2022-12-13T00:09:14;22.10;;;12.60;;
9370;SDS011;4725;48.384;8.984;2022-12-13T00:11:42;23.20;;;13.70;;
9370;SDS011;4725;48.384;8.984;2022-12-13T00:14:09;23.00;;;12.80;;
9370;SDS011;4725;48.384;8.984;2022-12-13T00:16:38;20.30;;;12.37;;
9370;SDS011;4725;48.384;8.984;2022-12-13T00:19:07;25.23;;;13.47;;
9370;SDS011;4725;48.384;8.984;2022-12-13T00:21:34;21.80;;;11.50;;
9370;SDS011;4725;48.384;8.984;2022-12-13T00:24:00;22.60;;;12.13;;
9370;SDS011;4725;48.384;8.984;2022-12-13T00:26:28;23.60;;;12.90;;
9370;SDS011;4725;48.384;8.984;2022-12-13T00:28:57;23.03;;;12.20;;
9370;SDS011;4725;48.384;8.984;2022-12-13T00:31:25;14.97;;;9.80;;
9370;SDS011;4725;48.384;8.984;2022-12-13T00:33:53;20.47;;;11.90;;
9370;SDS011;4725;48.384;8.984;2022-12-13T00:36:22;22.37;;;12.93;;
9370;SDS011;4725;48.384;8.984;2022-12-13T00:38:49;17.90;;;11.20;;
9370;SDS011;4725;48.384;8.984;2022-12-13T00:41:25;18.93;;;11.67;;
9370;SDS011;4725;48.384;8.984;2022-12-13T00:43:53;21.13;;;12.20;;
9370;SDS011;4725;48.384;8.984;2022-12-13T00:46:21;22.23;;;11.63;;
9370;SDS011;4725;48.384;8.984;2022-12-13T00:48:48;18.40;;;10.67;;
9370;SDS011;4725;48.384;8.984;2022-12-13T00:51:17;17.57;;;10.07;;
9370;SDS011;4725;48.384;8.984;2022-12-13T00:53:46;17.93;;;9.67;;
9370;SDS011;4725;48.384;8.984;2022-12-13T00:56:15;18.37;;;9.90;;
9370;SDS011;4725;48.384;8.984;2022-12-13T00:58:43;16.47;;;9.67;;
9370;SDS011;4725;48.384;8.984;2022-12-13T01:01:11;15.37;;;9.23;;
9370;SDS011;4725;48.384;8.984;2022-12-13T01:03:40;14.80;;;8.90;;
9370;SDS011;4725;48.384;8.984;2022-12-13T01:06:07;13.67;;;7.67;;
9370;SDS011;4725;48.384;8.984;2022-12-13T01:08:35;12.10;;;7.57;;
9370;SDS011;4725;48.384;8.984;2022-12-13T01:11:04;11.23;;;7.17;;
9370;SDS011;4725;48.384;8.984;2022-12-13T01:13:32;10.83;;;6.90;;
9370;SDS011;4725;48.384;8.984;2022-12-13T01:16:00;14.43;;;7.83;;
9370;SDS011;4725;48.384;8.984;2022-12-13T01:18:28;12.70;;;7.83;;
9370;SDS011;4725;48.384;8.984;2022-12-13T01:20:56;8.60;;;6.40;;
9370;SDS011;4725;48.384;8.984;2022-12-13T01:23:24;13.10;;;6.17;;
9370;SDS011;4725;48.384;8.984;2022-12-13T01:25:51;15.17;;;6.67;;
9370;SDS011;4725;48.384;8.984;2022-12-13T01:28:20;12.17;;;7.37;;
9370;SDS011;4725;48.384;8.984;2022-12-13T01:30:54;10.83;;;7.10;;
9370;SDS011;4725;48.384;8.984;2022-12-13T01:33:22;13.77;;;8.17;;
9370;SDS011;4725;48.384;8.984;2022-12-13T01:35:49;12.43;;;7.23;;
9370;SDS011;4725;48.384;8.984;2022-12-13T01:38:16;14.13;;;7.30;;
9370;SDS011;4725;48.384;8.984;2022-12-13T01:40:44;10.93;;;7.53;;
9370;SDS011;4725;48.384;8.984;2022-12-13T01:43:12;17.73;;;8.10;;
9370;SDS011;4725;48.384;8.984;2022-12-13T01:45:41;12.63;;;7.53;;
9370;SDS011;4725;48.384;8.984;2022-12-13T01:48:09;12.00;;;7.77;;
9370;SDS011;4725;48.384;8.984;2022-12-13T01:50:41;11.70;;;7.70;;
9370;SDS011;4725;48.384;8.984;2022-12-13T01:53:13;14.57;;;7.90;;
9370;SDS011;4725;48.384;8.984;2022-12-13T01:55:44;11.10;;;6.63;;
9370;SDS011;4725;48.384;8.984;2022-12-13T01:58:15;11.80;;;6.87;;
9370;SDS011;4725;48.384;8.984;2022-12-13T02:00:44;10.47;;;6.07;;
9370;SDS011;4725;48.384;8.984;2022-12-13T02:03:13;10.93;;;7.70;;
9370;SDS011;4725;48.384;8.984;2022-12-13T02:05:43;11.53;;;6.37;;
9370;SDS011;4725;48.384;8.984;2022-12-13T02:08:15;9.83;;;6.17;;
9370;SDS011;4725;48.384;8.984;2022-12-13T02:10:44;8.80;;;6.00;;
9370;SDS011;4725;48.384;8.984;2022-12-13T02:13:12;8.20;;;5.70;;
9370;SDS011;4725;48.384;8.984;2022-12-13T02:15:42;10.77;;;5.90;;
9370;SDS011;4725;48.384;8.984;2022-12-13T02:18:19;13.57;;;5.77;;
9370;SDS011;4725;48.384;8.984;2022-12-13T02:21:00;7.67;;;5.27;;
9370;SDS011;4725;48.384;8.984;2022-12-13T02:26:47;10.23;;;5.73;;
9370;SDS011;4725;48.384;8.984;2022-12-13T02:32:48;9.63;;;5.73;;
9370;SDS011;4725;48.384;8.984;2022-12-13T02:35:24;9.67;;;5.57;;
9370;SDS011;4725;48.384;8.984;2022-12-13T02:37:58;13.10;;;6.30;;
9370;SDS011;4725;48.384;8.984;2022-12-13T02:40:31;10.47;;;5.73;;
9370;SDS011;4725;48.384;8.984;2022-12-13T02:43:03;9.50;;;5.90;;
9370;SDS011;4725;48.384;8.984;2022-12-13T02:45:34;8.40;;;6.00;;
9370;SDS011;4725;48.384;8.984;2022-12-13T02:48:06;10.73;;;5.80;;
9370;SDS011;4725;48.384;8.984;2022-12-13T02:50:36;10.90;;;5.87;;
9370;SDS011;4725;48.384;8.984;2022-12-13T02:53:04;12.13;;;7.00;;
9370;SDS011;4725;48.384;8.984;2022-12-13T02:55:32;11.53;;;6.40;;
9370;SDS011;4725;48.384;8.984;2022-12-13T02:58:00;9.23;;;5.57;;
9370;SDS011;4725;48.384;8.984;2022-12-13T03:00:30;9.40;;;5.43;;
9370;SDS011;4725;48.384;8.984;2022-12-13T03:03:11;11.67;;;6.37;;
9370;SDS011;4725;48.384;8.984;2022-12-13T03:05:46;9.30;;;6.27;;
9370;SDS011;4725;48.384;8.984;2022-12-13T03:08:38;9.23;;;6.47;;
9370;SDS011;4725;48.384;8.984;2022-12-13T03:11:14;9.97;;;5.83;;
9370;SDS011;4725;48.384;8.984;2022-12-13T03:13:45;9.60;;;5.87;;
9370;SDS011;4725;48.384;8.984;2022-12-13T03:16:20;10.47;;;7.33;;
9370;SDS011;4725;48.384;8.984;2022-12-13T03:18:56;8.23;;;5.70;;
9370;SDS011;4725;48.384;8.984;2022-12-13T03:21:25;12.87;;;6.80;;
9370;SDS011;4725;48.384;8.984;2022-12-13T03:23:52;10.90;;;7.30;;
9370;SDS011;4725;48.384;8.984;2022-12-13T03:26:20;11.93;;;6.97;;
9370;SDS011;4725;48.384;8.984;2022-12-13T03:28:49;11.53;;;6.77;;
9370;SDS011;4725;48.384;8.984;2022-12-13T03:31:17;10.40;;;6.83;;
9370;SDS011;4725;48.384;8.984;2022-12-13T03:33:44;12.50;;;7.03;;
9370;SDS011;4725;48.384;8.984;2022-12-13T03:36:13;10.07;;;6.47;;
9370;SDS011;4725;48.384;8.984;2022-12-13T03:38:40;10.67;;;6.10;;
9370;SDS011;4725;48.384;8.984;2022-12-13T03:41:08;10.10;;;6.10;;
9370;SDS011;4725;48.384;8.984;2022-12-13T03:43:37;11.93;;;5.67;;
9370;SDS011;4725;48.384;8.984;2022-12-13T03:46:04;12.77;;;6.73;;
9370;SDS011;4725;48.384;8.984;2022-12-13T03:48:31;12.60;;;6.63;;
9370;SDS011;4725;48.384;8.984;2022-12-13T03:50:58;13.20;;;7.00;;
9370;SDS011;4725;48.384;8.984;2022-12-13T03:53:26;10.77;;;5.80;;
9370;SDS011;4725;48.384;8.984;2022-12-13T03:55:54;8.87;;;5.93;;
9370;SDS011;4725;48.384;8.984;2022-12-13T03:58:21;9.33;;;5.80;;
9370;SDS011;4725;48.384;8.984;2022-12-13T04:00:48;10.43;;;6.03;;
9370;SDS011;4725;48.384;8.984;2022-12-13T04:03:15;11.90;;;5.90;;
9370;SDS011;4725;48.384;8.984;2022-12-13T04:05:42;9.60;;;5.80;;
9370;SDS011;4725;48.384;8.984;2022-12-13T04:08:09;9.30;;;6.17;;
9370;SDS011;4725;48.384;8.984;2022-12-13T04:10:37;11.47;;;6.90;;
9370;SDS011;4725;48.384;8.984;2022-12-13T04:13:04;9.33;;;5.70;;
9370;SDS011;4725;48.384;8.984;2022-12-13T04:15:49;10.17;;;5.70;;
9370;SDS011;4725;48.384;8.984;2022-12-13T04:18:16;8.60;;;5.67;;
9370;SDS011;4725;48.384;8.984;2022-12-13T04:20:44;8.47;;;5.87;;
9370;SDS011;4725;48.384;8.984;2022-12-13T04:23:11;13.67;;;6.33;;
9370;SDS011;4725;48.384;8.984;2022-12-13T04:25:43;14.83;;;6.57;;
9370;SDS011;4725;48.384;8.984;2022-12-13T04:28:13;10.07;;;5.60;;
9370;SDS011;4725;48.384;8.984;2022-12-13T04:30:41;8.83;;;5.73;;
9370;SDS011;4725;48.384;8.984;2022-12-13T04:33:08;10.27;;;6.03;;
9370;SDS011;4725;48.384;8.984;2022-12-13T04:35:35;10.60;;;6.67;;
9370;SDS011;4725;48.384;8.984;2022-12-13T04:38:01;9.93;;;6.00;;
9370;SDS011;4725;48.384;8.984;2022-12-13T04:40:28;10.77;;;6.03;;
9370;SDS011;4725;48.384;8.984;2022-12-13T04:42:57;8.87;;;6.20;;
9370;SDS011;4725;48.384;8.984;2022-12-13T04:45:24;8.93;;;5.27;;
9370;SDS011;4725;48.384;8.984;2022-12-13T04:47:51;8.63;;;5.53;;
9370;SDS011;4725;48.384;8.984;2022-12-13T04:50:18;14.33;;;6.00;;
9370;SDS011;4725;48.384;8.984;2022-12-13T04:52:45;8.03;;;5.33;;
9370;SDS011;4725;48.384;8.984;2022-12-13T04:55:12;9.73;;;5.53;;
9370;SDS011;4725;48.384;8.984;2022-12-13T04:57:39;10.97;;;6.37;;
9370;SDS011;4725;48.384;8.984;2022-12-13T05:00:09;11.70;;;6.80;;
9370;SDS011;4725;48.384;8.984;2022-12-13T05:02:38;12.33;;;6.00;;
9370;SDS011;4725;48.384;8.984;2022-12-13T05:05:06;13.20;;;6.10;;
9370;SDS011;4725;48.384;8.984;2022-12-13T05:07:34;9.63;;;5.97;;
9370;SDS011;4725;48.384;8.984;2022-12-13T05:10:01;12.53;;;6.13;;
9370;SDS011;4725;48.384;8.984;2022-12-13T05:12:28;12.03;;;6.23;;
9370;SDS011;4725;48.384;8.984;2022-12-13T05:14:55;8.23;;;5.73;;
9370;SDS011;4725;48.384;8.984;2022-12-13T05:17:24;10.97;;;6.33;;
9370;SDS011;4725;48.384;8.984;2022-12-13T05:19:51;18.50;;;6.90;;
9370;SDS011;4725;48.384;8.984;2022-12-13T05:22:18;10.73;;;5.90;;
9370;SDS011;4725;48.384;8.984;2022-12-13T05:24:45;12.07;;;6.57;;
9370;SDS011;4725;48.384;8.984;2022-12-13T05:27:12;9.83;;;6.40;;
9370;SDS011;4725;48.384;8.984;2022-12-13T05:29:39;10.33;;;5.70;;
9370;SDS011;4725;48.384;8.984;2022-12-13T05:32:06;13.37;;;6.07;;
9370;SDS011;4725;48.384;8.984;2022-12-13T05:34:34;9.10;;;6.13;;
9370;SDS011;4725;48.384;8.984;2022-12-13T05:37:01;10.20;;;6.13;;
9370;SDS011;4725;48.384;8.984;2022-12-13T05:39:28;13.63;;;6.80;;
9370;SDS011;4725;48.384;8.984;2022-12-13T05:41:56;12.03;;;7.40;;
9370;SDS011;4725;48.384;8.984;2022-12-13T05:44:24;10.43;;;7.13;;
9370;SDS011;4725;48.384;8.984;2022-12-13T05:46:51;14.97;;;8.37;;
9370;SDS011;4725;48.384;8.984;2022-12-13T05:49:18;10.40;;;7.60;;
9370;SDS011;4725;48.384;8.984;2022-12-13T05:51:47;14.53;;;7.83;;
9370;SDS011;4725;48.384;8.984;2022-12-13T05:54:13;11.30;;;7.93;;
9370;SDS011;4725;48.384;8.984;2022-12-13T05:56:41;11.17;;;7.73;;
9370;SDS011;4725;48.384;8.984;2022-12-13T05:59:08;13.13;;;7.30;;
9370;SDS011;4725;48.384;8.984;2022-12-13T06:01:35;14.20;;;7.93;;
9370;SDS011;4725;48.384;8.984;2022-12-13T06:04:02;11.13;;;6.83;;
9370;SDS011;4725;48.384;8.984;2022-12-13T06:06:29;14.05;;;10.25;;
9370;SDS011;4725;48.384;8.984;2022-12-13T06:08:58;11.43;;;7.23;;
9370;SDS011;4725;48.384;8.984;2022-12-13T06:11:25;9.70;;;5.93;;
9370;SDS011;4725;48.384;8.984;2022-12-13T06:13:53;9.33;;;6.47;;
9370;SDS011;4725;48.384;8.984;2022-12-13T06:16:20;13.57;;;6.27;;
9370;SDS011;4725;48.384;8.984;2022-12-13T06:18:47;9.40;;;5.77;;
9370;SDS011;4725;48.384;8.984;2022-12-13T06:21:14;8.63;;;6.33;;
9370;SDS011;4725;48.384;8.984;2022-12-13T06:23:41;11.27;;;6.23;;
9370;SDS011;4725;48.384;8.984;2022-12-13T06:26:09;12.27;;;6.43;;
9370;SDS011;4725;48.384;8.984;2022-12-13T06:28:36;12.57;;;6.27;;
9370;SDS011;4725;48.384;8.984;2022-12-13T06:31:03;11.57;;;7.50;;
9370;SDS011;4725;48.384;8.984;2022-12-13T06:33:30;16.30;;;9.03;;
9370;SDS011;4725;48.384;8.984;2022-12-13T06:36:00;19.37;;;11.37;;
9370;SDS011;4725;48.384;8.984;2022-12-13T06:38:29;15.90;;;8.60;;
9370;SDS011;4725;48.384;8.984;2022-12-13T06:41:04;13.90;;;7.37;;
9370;SDS011;4725;48.384;8.984;2022-12-13T06:43:34;12.23;;;7.30;;
9370;SDS011;4725;48.384;8.984;2022-12-13T06:46:01;12.43;;;8.17;;
9370;SDS011;4725;48.384;8.984;2022-12-13T06:48:30;14.97;;;8.20;;
9370;SDS011;4725;48.384;8.984;2022-12-13T06:50:58;15.70;;;7.97;;
9370;SDS011;4725;48.384;8.984;2022-12-13T06:53:26;12.37;;;7.77;;
9370;SDS011;4725;48.384;8.984;2022-12-13T06:55:54;14.97;;;9.10;;
9370;SDS011;4725;48.384;8.984;2022-12-13T06:58:21;15.77;;;9.43;;
9370;SDS011;4725;48.384;8.984;2022-12-13T07:00:59;16.53;;;8.83;;
9370;SDS011;4725;48.384;8.984;2022-12-13T07:03:26;14.47;;;8.83;;
9370;SDS011;4725;48.384;8.984;2022-12-13T07:05:54;15.53;;;9.20;;
9370;SDS011;4725;48.384;8.984;2022-12-13T07:08:22;16.63;;;9.43;;
9370;SDS011;4725;48.384;8.984;2022-12-13T07:10:50;17.40;;;9.23;;
9370;SDS011;4725;48.384;8.984;2022-12-13T07:13:19;17.40;;;9.00;;
9370;SDS011;4725;48.384;8.984;2022-12-13T07:15:46;18.33;;;9.93;;
9370;SDS011;4725;48.384;8.984;2022-12-13T07:18:15;14.97;;;9.70;;
9370;SDS011;4725;48.384;8.984;2022-12-13T07:20:43;16.30;;;8.80;;
9370;SDS011;4725;48.384;8.984;2022-12-13T07:23:10;19.50;;;10.73;;
9370;SDS011;4725;48.384;8.984;2022-12-13T07:25:38;27.63;;;12.53;;
9370;SDS011;4725;48.384;8.984;2022-12-13T07:28:05;24.23;;;11.47;;
9370;SDS011;4725;48.384;8.984;2022-12-13T07:30:34;17.77;;;11.13;;
9370;SDS011;4725;48.384;8.984;2022-12-13T07:33:02;38.20;;;19.33;;
9370;SDS011;4725;48.384;8.984;2022-12-13T07:35:31;19.93;;;11.93;;
9370;SDS011;4725;48.384;8.984;2022-12-13T07:37:58;16.47;;;11.27;;
9370;SDS011;4725;48.384;8.984;2022-12-13T07:40:25;17.23;;;10.57;;
9370;SDS011;4725;48.384;8.984;2022-12-13T07:42:53;20.67;;;9.47;;
9370;SDS011;4725;48.384;8.984;2022-12-13T07:45:22;16.27;;;9.03;;
9370;SDS011;4725;48.384;8.984;2022-12-13T07:47:49;15.43;;;9.10;;
9370;SDS011;4725;48.384;8.984;2022-12-13T07:50:16;19.20;;;9.93;;
9370;SDS011;4725;48.384;8.984;2022-12-13T07:52:45;18.00;;;9.37;;
9370;SDS011;4725;48.384;8.984;2022-12-13T07:55:13;17.23;;;8.40;;
9370;SDS011;4725;48.384;8.984;2022-12-13T07:57:40;11.07;;;7.10;;
9370;SDS011;4725;48.384;8.984;2022-12-13T08:00:07;9.90;;;6.53;;
9370;SDS011;4725;48.384;8.984;2022-12-13T08:02:35;10.50;;;6.83;;
9370;SDS011;4725;48.384;8.984;2022-12-13T08:05:03;10.83;;;6.00;;
9370;SDS011;4725;48.384;8.984;2022-12-13T08:07:30;11.77;;;6.73;;
9370;SDS011;4725;48.384;8.984;2022-12-13T08:09:59;8.90;;;5.63;;
9370;SDS011;4725;48.384;8.984;2022-12-13T08:12:26;13.33;;;6.50;;
9370;SDS011;4725;48.384;8.984;2022-12-13T08:14:53;10.33;;;6.33;;
9370;SDS011;4725;48.384;8.984;2022-12-13T08:17:20;11.27;;;6.37;;
9370;SDS011;4725;48.384;8.984;2022-12-13T08:19:47;12.30;;;7.73;;
9370;SDS011;4725;48.384;8.984;2022-12-13T08:22:14;11.50;;;6.40;;
9370;SDS011;4725;48.384;8.984;2022-12-13T08:24:41;9.37;;;6.40;;
9370;SDS011;4725;48.384;8.984;2022-12-13T08:27:09;10.27;;;6.43;;
9370;SDS011;4725;48.384;8.984;2022-12-13T08:29:36;10.60;;;6.63;;
9370;SDS011;4725;48.384;8.984;2022-12-13T08:32:05;9.90;;;6.63;;
9370;SDS011;4725;48.384;8.984;2022-12-13T08:34:33;8.87;;;5.83;;
9370;SDS011;4725;48.384;8.984;2022-12-13T08:36:59;8.00;;;5.57;;
9370;SDS011;4725;48.384;8.984;2022-12-13T08:39:26;7.07;;;4.67;;
9370;SDS011;4725;48.384;8.984;2022-12-13T08:41:54;8.13;;;5.37;;
9370;SDS011;4725;48.384;8.984;2022-12-13T08:44:22;7.30;;;5.10;;
9370;SDS011;4725;48.384;8.984;2022-12-13T08:46:49;7.30;;;4.60;;
9370;SDS011;4725;48.384;8.984;2022-12-13T08:49:16;7.77;;;5.63;;
9370;SDS011;4725;48.384;8.984;2022-12-13T08:51:43;8.40;;;4.90;;
9370;SDS011;4725;48.384;8.984;2022-12-13T08:54:10;8.63;;;6.03;;
9370;SDS011;4725;48.384;8.984;2022-12-13T08:56:37;9.17;;;5.40;;
9370;SDS011;4725;48.384;8.984;2022-12-13T08:59:04;9.23;;;5.50;;
9370;SDS011;4725;48.384;8.984;2022-12-13T09:01:33;7.50;;;5.03;;
9370;SDS011;4725;48.384;8.984;2022-12-13T09:04:00;6.33;;;4.90;;
9370;SDS011;4725;48.384;8.984;2022-12-13T09:06:27;8.97;;;5.13;;
9370;SDS011;4725;48.384;8.984;2022-12-13T09:08:54;9.00;;;6.17;;
9370;SDS011;4725;48.384;8.984;2022-12-13T09:11:21;7.63;;;4.97;;
9370;SDS011;4725;48.384;8.984;2022-12-13T09:13:48;8.77;;;6.10;;
9370;SDS011;4725;48.384;8.984;2022-12-13T09:16:16;9.47;;;5.73;;
9370;SDS011;4725;48.384;8.984;2022-12-13T09:18:47;12.70;;;7.57;;
9370;SDS011;4725;48.384;8.984;2022-12-13T09:21:14;11.53;;;6.33;;
9370;SDS011;4725;48.384;8.984;2022-12-13T09:23:42;15.13;;;9.20;;
9370;SDS011;4725;48.384;8.984;2022-12-13T09:26:10;36.53;;;20.13;;
9370;SDS011;4725;48.384;8.984;2022-12-13T09:28:38;12.13;;;7.10;;
9370;SDS011;4725;48.384;8.984;2022-12-13T09:31:06;8.80;;;5.90;;
9370;SDS011;4725;48.384;8.984;2022-12-13T09:33:34;16.47;;;9.53;;
9370;SDS011;4725;48.384;8.984;2022-12-13T09:36:04;14.40;;;10.50;;
9370;SDS011;4725;48.384;8.984;2022-12-13T09:38:32;9.53;;;6.73;;
9370;SDS011;4725;48.384;8.984;2022-12-13T09:41:02;9.77;;;7.13;;
9370;SDS011;4725;48.384;8.984;2022-12-13T09:43:34;10.07;;;5.90;;
9370;SDS011;4725;48.384;8.984;2022-12-13T09:46:04;6.80;;;5.33;;
9370;SDS011;4725;48.384;8.984;2022-12-13T09:48:33;8.70;;;5.57;;
9370;SDS011;4725;48.384;8.984;2022-12-13T09:51:03;11.30;;;5.83;;
9370;SDS011;4725;48.384;8.984;2022-12-13T09:53:30;8.83;;;5.70;;
9370;SDS011;4725;48.384;8.984;2022-12-13T09:55:57;7.57;;;5.17;;
9370;SDS011;4725;48.384;8.984;2022-12-13T09:58:25;8.87;;;6.10;;
9370;SDS011;4725;48.384;8.984;2022-12-13T10:00:54;9.00;;;5.67;;
9370;SDS011;4725;48.384;8.984;2022-12-13T10:03:23;8.67;;;5.87;;
9370;SDS011;4725;48.384;8.984;2022-12-13T10:05:54;7.43;;;5.30;;
9370;SDS011;4725;48.384;8.984;2022-12-13T10:08:26;7.67;;;5.93;;
9370;SDS011;4725;48.384;8.984;2022-12-13T10:10:57;8.60;;;5.60;;
9370;SDS011;4725;48.384;8.984;2022-12-13T10:13:25;9.23;;;5.83;;
9370;SDS011;4725;48.384;8.984;2022-12-13T10:16:03;7.70;;;5.77;;
9370;SDS011;4725;48.384;8.984;2022-12-13T10:18:35;11.87;;;6.20;;
9370;SDS011;4725;48.384;8.984;2022-12-13T10:21:04;10.47;;;6.90;;
9370;SDS011;4725;48.384;8.984;2022-12-13T10:23:36;8.53;;;6.20;;
9370;SDS011;4725;48.384;8.984;2022-12-13T10:26:07;9.03;;;5.93;;
9370;SDS011;4725;48.384;8.984;2022-12-13T10:28:35;12.83;;;7.23;;
9370;SDS011;4725;48.384;8.984;2022-12-13T10:31:02;8.60;;;7.03;;
9370;SDS011;4725;48.384;8.984;2022-12-13T10:33:30;9.07;;;6.00;;
9370;SDS011;4725;48.384;8.984;2022-12-13T10:36:03;13.40;;;7.10;;
9370;SDS011;4725;48.384;8.984;2022-12-13T10:38:40;10.33;;;6.50;;
9370;SDS011;4725;48.384;8.984;2022-12-13T10:46:50;14.13;;;9.77;;
9370;SDS011;4725;48.384;8.984;2022-12-13T10:49:25;12.77;;;7.70;;
9370;SDS011;4725;48.384;8.984;2022-12-13T10:51:58;12.30;;;7.43;;
9370;SDS011;4725;48.384;8.984;2022-12-13T10:54:29;11.23;;;7.43;;
9370;SDS011;4725;48.384;8.984;2022-12-13T10:56:58;9.33;;;6.70;;
9370;SDS011;4725;48.384;8.984;2022-12-13T10:59:27;13.37;;;7.27;;
9370;SDS011;4725;48.384;8.984;2022-12-13T11:01:58;9.20;;;6.73;;
9370;SDS011;4725;48.384;8.984;2022-12-13T11:04:26;10.50;;;7.20;;
9370;SDS011;4725;48.384;8.984;2022-12-13T11:06:56;10.47;;;7.47;;
9370;SDS011;4725;48.384;8.984;2022-12-13T11:09:25;11.13;;;7.00;;
9370;SDS011;4725;48.384;8.984;2022-12-13T11:11:55;9.43;;;6.90;;
9370;SDS011;4725;48.384;8.984;2022-12-13T11:14:26;10.53;;;7.17;;
9370;SDS011;4725;48.384;8.984;2022-12-13T11:16:55;12.70;;;6.90;;
9370;SDS011;4725;48.384;8.984;2022-12-13T11:19:25;8.80;;;5.97;;
9370;SDS011;4725;48.384;8.984;2022-12-13T11:21:57;13.70;;;7.30;;
9370;SDS011;4725;48.384;8.984;2022-12-13T11:24:27;9.20;;;6.57;;
9370;SDS011;4725;48.384;8.984;2022-12-13T11:27:01;11.43;;;7.20;;
9370;SDS011;4725;48.384;8.984;2022-12-13T11:29:49;8.87;;;6.77;;
9370;SDS011;4725;48.384;8.984;2022-12-13T11:32:28;11.63;;;7.50;;
9370;SDS011;4725;48.384;8.984;2022-12-13T11:35:11;13.97;;;8.30;;
9370;SDS011;4725;48.384;8.984;2022-12-13T11:37:44;10.83;;;7.50;;
9370;SDS011;4725;48.384;8.984;2022-12-13T11:40:21;11.30;;;7.70;;
9370;SDS011;4725;48.384;8.984;2022-12-13T11:42:54;11.80;;;8.53;;
9370;SDS011;4725;48.384;8.984;2022-12-13T11:45:26;11.20;;;8.17;;
9370;SDS011;4725;48.384;8.984;2022-12-13T11:47:58;10.00;;;7.17;;
9370;SDS011;4725;48.384;8.984;2022-12-13T11:50:30;10.67;;;7.50;;
9370;SDS011;4725;48.384;8.984;2022-12-13T11:53:09;11.77;;;7.13;;
9370;SDS011;4725;48.384;8.984;2022-12-13T11:55:47;10.23;;;7.00;;
9370;SDS011;4725;48.384;8.984;2022-12-13T11:58:20;15.70;;;8.03;;
9370;SDS011;4725;48.384;8.984;2022-12-13T12:00:54;11.03;;;7.77;;
9370;SDS011;4725;48.384;8.984;2022-12-13T12:03:27;10.63;;;7.90;;
9370;SDS011;4725;48.384;8.984;2022-12-13T12:06:03;13.48;;;9.90;;
9370;SDS011;4725;48.384;8.984;2022-12-13T12:08:37;10.53;;;8.10;;
9370;SDS011;4725;48.384;8.984;2022-12-13T12:11:11;10.03;;;7.50;;
9370;SDS011;4725;48.384;8.984;2022-12-13T12:13:44;11.83;;;8.27;;
9370;SDS011;4725;48.384;8.984;2022-12-13T12:16:18;10.70;;;7.50;;
9370;SDS011;4725;48.384;8.984;2022-12-13T12:18:50;12.57;;;7.97;;
9370;SDS011;4725;48.384;8.984;2022-12-13T12:21:22;15.63;;;8.47;;
9370;SDS011;4725;48.384;8.984;2022-12-13T12:23:57;11.47;;;7.00;;
9370;SDS011;4725;48.384;8.984;2022-12-13T12:26:36;11.40;;;7.30;;
9370;SDS011;4725;48.384;8.984;2022-12-13T12:29:29;10.43;;;6.97;;
9370;SDS011;4725;48.384;8.984;2022-12-13T12:32:16;11.90;;;7.53;;
9370;SDS011;4725;48.384;8.984;2022-12-13T12:34:51;10.57;;;6.93;;
9370;SDS011;4725;48.384;8.984;2022-12-13T12:37:28;10.97;;;7.20;;
9370;SDS011;4725;48.384;8.984;2022-12-13T12:40:05;15.00;;;7.60;;
9370;SDS011;4725;48.384;8.984;2022-12-13T12:42:48;14.77;;;7.90;;
9370;SDS011;4725;48.384;8.984;2022-12-13T12:45:32;10.83;;;7.50;;
9370;SDS011;4725;48.384;8.984;2022-12-13T12:48:10;13.77;;;7.40;;
9370;SDS011;4725;48.384;8.984;2022-12-13T12:50:47;12.77;;;8.03;;
9370;SDS011;4725;48.384;8.984;2022-12-13T12:53:28;11.23;;;7.97;;
9370;SDS011;4725;48.384;8.984;2022-12-13T12:56:11;16.13;;;9.27;;
9370;SDS011;4725;48.384;8.984;2022-12-13T12:58:57;10.93;;;7.60;;
9370;SDS011;4725;48.384;8.984;2022-12-13T13:01:35;11.27;;;7.47;;
9370;SDS011;4725;48.384;8.984;2022-12-13T13:04:16;11.87;;;7.80;;
9370;SDS011;4725;48.384;8.984;2022-12-13T13:06:45;17.50;;;8.57;;
9370;SDS011;4725;48.384;8.984;2022-12-13T13:09:17;16.83;;;9.10;;
9370;SDS011;4725;48.384;8.984;2022-12-13T13:11:45;14.83;;;9.40;;
9370;SDS011;4725;48.384;8.984;2022-12-13T13:14:27;10.47;;;7.77;;
9370;SDS011;4725;48.384;8.984;2022-12-13T13:16:57;12.07;;;8.83;;
9370;SDS011;4725;48.384;8.984;2022-12-13T13:19:42;13.63;;;8.60;;
9370;SDS011;4725;48.384;8.984;2022-12-13T13:22:30;11.93;;;8.47;;
9370;SDS011;4725;48.384;8.984;2022-12-13T13:24:59;13.37;;;9.50;;
9370;SDS011;4725;48.384;8.984;2022-12-13T13:27:46;15.43;;;9.40;;
9370;SDS011;4725;48.384;8.984;2022-12-13T13:30:15;13.73;;;8.07;;
9370;SDS011;4725;48.384;8.984;2022-12-13T13:32:45;14.43;;;8.73;;
9370;SDS011;4725;48.384;8.984;2022-12-13T13:38:46;11.87;;;9.00;;
9370;SDS011;4725;48.384;8.984;2022-12-13T13:49:45;12.07;;;8.97;;
9370;SDS011;4725;48.384;8.984;2022-12-13T13:52:20;13.43;;;7.97;;
9370;SDS011;4725;48.384;8.984;2022-12-13T13:57:51;13.93;;;9.03;;
9370;SDS011;4725;48.384;8.984;2022-12-13T14:00:54;12.97;;;8.07;;
9370;SDS011;4725;48.384;8.984;2022-12-13T14:04:01;12.10;;;7.90;;
9370;SDS011;4725;48.384;8.984;2022-12-13T14:06:59;10.40;;;7.47;;
9370;SDS011;4725;48.384;8.984;2022-12-13T14:09:48;12.77;;;6.33;;
9370;SDS011;4725;48.384;8.984;2022-12-13T14:12:44;10.77;;;6.80;;
9370;SDS011;4725;48.384;8.984;2022-12-13T14:15:46;11.93;;;8.10;;
9370;SDS011;4725;48.384;8.984;2022-12-13T14:21:52;9.23;;;6.43;;
9370;SDS011;4725;48.384;8.984;2022-12-13T14:24:36;14.73;;;9.63;;
9370;SDS011;4725;48.384;8.984;2022-12-13T14:27:12;10.53;;;8.37;;
9370;SDS011;4725;48.384;8.984;2022-12-13T14:29:44;9.20;;;6.10;;
9370;SDS011;4725;48.384;8.984;2022-12-13T14:32:17;12.57;;;7.77;;
9370;SDS011;4725;48.384;8.984;2022-12-13T14:34:46;11.00;;;7.17;;
9370;SDS011;4725;48.384;8.984;2022-12-13T14:37:20;13.83;;;7.20;;
9370;SDS011;4725;48.384;8.984;2022-12-13T14:39:52;37.93;;;20.33;;
9370;SDS011;4725;48.384;8.984;2022-12-13T14:42:20;18.07;;;8.60;;
9370;SDS011;4725;48.384;8.984;2022-12-13T14:44:50;15.10;;;9.30;;
9370;SDS011;4725;48.384;8.984;2022-12-13T14:47:17;21.80;;;11.33;;
9370;SDS011;4725;48.384;8.984;2022-12-13T14:49:48;25.10;;;9.03;;
9370;SDS011;4725;48.384;8.984;2022-12-13T14:52:23;23.97;;;10.97;;
9370;SDS011;4725;48.384;8.984;2022-12-13T14:54:53;35.63;;;15.23;;
9370;SDS011;4725;48.384;8.984;2022-12-13T14:57:22;23.13;;;12.13;;
9370;SDS011;4725;48.384;8.984;2022-12-13T14:59:51;10.37;;;7.17;;
9370;SDS011;4725;48.384;8.984;2022-12-13T15:02:20;12.97;;;7.73;;
9370;SDS011;4725;48.384;8.984;2022-12-13T15:04:51;11.37;;;6.33;;
9370;SDS011;4725;48.384;8.984;2022-12-13T15:07:21;12.97;;;6.63;;
9370;SDS011;4725;48.384;8.984;2022-12-13T15:09:52;11.40;;;7.23;;
9370;SDS011;4725;48.384;8.984;2022-12-13T15:12:22;11.70;;;5.63;;
9370;SDS011;4725;48.384;8.984;2022-12-13T15:14:52;9.60;;;5.70;;
9370;SDS011;4725;48.384;8.984;2022-12-13T15:17:28;11.37;;;6.33;;
9370;SDS011;4725;48.384;8.984;2022-12-13T15:19:58;11.20;;;5.67;;
9370;SDS011;4725;48.384;8.984;2022-12-13T15:22:27;10.50;;;5.97;;
9370;SDS011;4725;48.384;8.984;2022-12-13T15:24:54;8.37;;;5.20;;
9370;SDS011;4725;48.384;8.984;2022-12-13T15:27:22;9.60;;;6.30;;
9370;SDS011;4725;48.384;8.984;2022-12-13T15:29:49;11.23;;;5.80;;
9370;SDS011;4725;48.384;8.984;2022-12-13T15:32:18;12.67;;;6.33;;
9370;SDS011;4725;48.384;8.984;2022-12-13T15:34:47;12.43;;;5.53;;
9370;SDS011;4725;48.384;8.984;2022-12-13T15:37:20;7.67;;;5.33;;
9370;SDS011;4725;48.384;8.984;2022-12-13T15:39:53;10.90;;;5.80;;
9370;SDS011;4725;48.384;8.984;2022-12-13T15:42:25;10.47;;;5.73;;
9370;SDS011;4725;48.384;8.984;2022-12-13T15:44:55;14.37;;;6.20;;
9370;SDS011;4725;48.384;8.984;2022-12-13T15:47:24;11.97;;;6.33;;
9370;SDS011;4725;48.384;8.984;2022-12-13T15:49:53;12.60;;;7.00;;
9370;SDS011;4725;48.384;8.984;2022-12-13T15:52:26;10.70;;;6.63;;
9370;SDS011;4725;48.384;8.984;2022-12-13T15:57:57;18.47;;;9.17;;